This is the latest recevied weather packets stored in our database for station/object OE-11204. If no packets are shown the sender has not sent any weather packets the latest 10 day(s).
| Time | Temp. | Humidity | Pressure | Rain* | Wind** | Luminosity | Snow |
|---|---|---|---|---|---|---|---|
| 1787938515 | 27.78° C | 48% | 1008.1 hPa | 0 mm | - | 12 W/m² | - |
| 1787937915 | 28.33° C | 46% | 1008.3 hPa | 0 mm | - | 19 W/m² | - |
| 1787937088 | 28.33° C | 48% | 1008 hPa | 0 mm | - | 31 W/m² | - |
| 1787936714 | 28.33° C | 48% | 1008 hPa | 0 mm | - | 37 W/m² | - |
| 1787936114 | 28.33° C | 46% | 1008.4 hPa | 0 mm | - | 31 W/m² | - |
| 1787935288 | 28.89° C | 42% | 1007.9 hPa | 0 mm | - | 31 W/m² | - |
| 1787934915 | 28.89° C | 47% | 1008.2 hPa | 0 mm | - | 31 W/m² | - |
| 1787934315 | 28.89° C | 45% | 1007.8 hPa | 0 mm | - | 62 W/m² | - |
| 1787933488 | 29.44° C | 44% | 1007.5 hPa | 0 mm | - | 111 W/m² | - |
| 1787933115 | 29.44° C | 45% | 1007.5 hPa | 0 mm | - | 130 W/m² | - |
| 1787932515 | 29.44° C | 46% | 1007.6 hPa | 0 mm | - | 130 W/m² | - |
| 1787931688 | 29.44° C | 44% | 1007.5 hPa | 0 mm | - | 161 W/m² | - |
| 1787931315 | 30° C | 44% | 1007.6 hPa | 0 mm | - | 179 W/m² | - |
| 1787930715 | 30.56° C | 42% | 1007.5 hPa | 0 mm | - | 248 W/m² | - |
| 1787929888 | 30.56° C | 42% | 1007.5 hPa | 0 mm | - | 285 W/m² | - |
| 1787929514 | 31.11° C | 41% | 1007.5 hPa | 0 mm | - | 285 W/m² | - |
| 1787928914 | 31.67° C | 40% | 1007.5 hPa | 0 mm | - | 446 W/m² | - |
| 1787928088 | 31.67° C | 43% | 1007.7 hPa | 0 mm | - | 371 W/m² | - |
| 1787927714 | 31.67° C | 44% | 1007.8 hPa | 0 mm | - | 452 W/m² | - |
| 1787927114 | 32.22° C | 42% | 1008 hPa | 0 mm | - | 501 W/m² | - |
| 1787926288 | 31.67° C | 45% | 1008 hPa | 0 mm | - | 532 W/m² | - |
| 1787925915 | 31.67° C | 44% | 1008.4 hPa | 0 mm | - | 353 W/m² | - |
| 1787925315 | 31.11° C | 45% | 1008.5 hPa | 0 mm | - | 303 W/m² | - |
| 1787924488 | 31.11° C | 44% | 1008.6 hPa | 0 mm | - | 359 W/m² | - |
| 1787924115 | 30.56° C | 44% | 1008.9 hPa | 0 mm | - | 377 W/m² | - |
* Rain latest hour (hover to see other rain measurements)
** Current wind speed in m/s (hover to see current wind gust speed)